Time;durP1;ratioP1;P1;durP2;ratioP2;P2;SDS_P1;SDS_P2;PMS_P1;PMS_P2;Temp;Humidity;BMP_temperature;BMP_pressure;BME280_temperature;BME280_humidity;BME280_pressure;Samples;Min_cycle;Max_cycle;Signal;HPM_P1;HPM_P2
2022/09/01 00:01:50;;;;;;;5.47;2.20;;;;;;;14.28;83.44;100100.41;1750290;82;21587;-64
2022/09/01 00:04:21;;;;;;;2.80;1.80;;;;;;;14.27;82.54;100106.17;1750294;82;21063;-63
2022/09/01 00:06:49;;;;;;;4.17;1.60;;;;;;;14.27;81.99;100106.65;1750534;82;21013;-64
2022/09/01 00:09:18;;;;;;;3.30;2.05;;;;;;;14.27;81.51;100106.65;1750477;81;21229;-64
2022/09/01 00:11:49;;;;;;;4.12;2.08;;;;;;;14.28;81.48;100113.64;1750466;82;21032;-66
2022/09/01 00:14:16;;;;;;;6.50;1.90;;;;;;;14.28;81.20;100107.02;1750536;82;21096;-64
2022/09/01 00:16:43;;;;;;;5.83;2.10;;;;;;;14.29;80.46;100107.43;1750315;81;21064;-62
2022/09/01 00:19:09;;;;;;;6.28;2.10;;;;;;;14.28;79.96;100108.34;1750294;82;21052;-64
2022/09/01 00:21:40;;;;;;;5.75;1.90;;;;;;;14.26;79.90;100108.45;1750366;82;21137;-64
2022/09/01 00:24:07;;;;;;;3.05;1.92;;;;;;;14.26;79.77;100104.48;1750346;82;21467;-64
2022/09/01 00:26:34;;;;;;;4.12;1.92;;;;;;;14.24;79.48;100105.02;1737820;82;21040;-65
2022/09/01 00:29:01;;;;;;;4.70;2.10;;;;;;;14.25;79.43;100115.14;1720467;83;21052;-64
2022/09/01 00:31:34;;;;;;;3.27;1.80;;;;;;;14.24;78.96;100118.70;1720884;80;21082;-64
2022/09/01 00:34:01;;;;;;;4.58;2.10;;;;;;;14.05;78.77;100082.59;1731611;82;21202;-68
2022/09/01 00:36:28;;;;;;;5.15;1.57;;;;;;;14.24;78.48;100121.36;1733336;82;21051;-69
2022/09/01 00:38:55;;;;;;;2.75;1.92;;;;;;;14.23;78.39;100115.69;1733354;82;21110;-69
2022/09/01 00:41:25;;;;;;;2.52;2.00;;;;;;;14.21;78.21;100124.18;1733510;82;21051;-68
2022/09/01 00:44:00;;;;;;;4.90;1.60;;;;;;;14.20;77.83;100125.13;1733318;82;21334;-69
2022/09/01 00:46:32;;;;;;;3.50;1.80;;;;;;;14.18;77.62;100121.70;1732204;82;21358;-68
2022/09/01 00:49:12;;;;;;;2.90;1.72;;;;;;;14.15;77.69;100127.13;1732755;82;21027;-68
2022/09/01 00:51:41;;;;;;;3.20;1.67;;;;;;;14.12;77.66;100127.30;1731205;82;21043;-69
2022/09/01 00:54:11;;;;;;;3.47;2.02;;;;;;;14.08;77.63;100124.42;1733095;82;21003;-67
2022/09/01 00:56:39;;;;;;;3.08;2.00;;;;;;;14.04;78.31;100128.56;1733255;82;21059;-69
2022/09/01 00:59:06;;;;;;;3.25;1.90;;;;;;;14.00;80.03;100124.83;1733243;82;21116;-69
2022/09/01 01:01:35;;;;;;;4.03;1.52;;;;;;;13.95;80.62;100125.06;1732904;82;21137;-70
2022/09/01 01:04:04;;;;;;;2.72;1.80;;;;;;;13.89;80.64;100121.39;1732719;82;21067;-68
2022/09/01 01:06:31;;;;;;;3.47;1.85;;;;;;;13.83;81.97;100123.05;1732672;82;21000;-68
2022/09/01 01:08:59;;;;;;;4.92;1.70;;;;;;;13.77;81.51;100124.67;1732583;82;21027;-70
2022/09/01 01:11:31;;;;;;;4.95;1.80;;;;;;;13.70;81.48;100124.59;1732707;82;21607;-69
2022/09/01 01:14:10;;;;;;;3.42;2.35;;;;;;;13.63;83.17;100122.23;1732810;82;21039;-68
2022/09/01 01:16:33;;;;;;;4.35;2.20;;;;;;;13.55;83.52;100120.45;1732121;82;21544;-69
2022/09/01 01:19:00;;;;;;;3.55;2.17;;;;;;;13.46;84.15;100116.94;1732604;82;21606;-68
2022/09/01 01:24:34;;;;;;;5.75;2.20;;;;;;;13.25;84.42;100125.87;1705461;82;21817;-69
2022/09/01 01:27:03;;;;;;;2.67;2.00;;;;;;;13.12;85.37;100122.50;1759422;81;21063;-68
2022/09/01 01:29:34;;;;;;;4.15;1.60;;;;;;;13.03;86.90;100128.22;1762932;81;21589;-68
2022/09/01 01:32:04;;;;;;;2.17;1.85;;;;;;;12.95;88.66;100133.00;1762239;81;21094;-69
2022/09/01 01:34:33;;;;;;;2.27;1.57;;;;;;;12.86;90.32;100127.70;1746752;82;21036;-68
2022/09/01 01:37:00;;;;;;;4.35;2.10;;;;;;;12.74;91.09;100133.53;1746938;82;21493;-69
2022/09/01 01:39:27;;;;;;;5.20;2.15;;;;;;;12.62;91.92;100130.99;1746923;82;21454;-68
2022/09/01 01:41:57;;;;;;;5.10;2.02;;;;;;;12.51;91.43;100134.11;1747240;82;21005;-67
2022/09/01 01:44:27;;;;;;;4.35;2.22;;;;;;;12.43;92.07;100131.44;1747138;82;21039;-68
2022/09/01 01:46:56;;;;;;;7.15;2.33;;;;;;;12.34;93.27;100128.27;1747039;82;21035;-68
2022/09/01 01:49:27;;;;;;;3.77;2.25;;;;;;;12.26;93.68;100127.77;1746947;82;21528;-70
2022/09/01 01:51:56;;;;;;;2.92;2.10;;;;;;;12.16;93.66;100129.93;1747017;82;22160;-67
2022/09/01 01:54:31;;;;;;;4.83;2.00;;;;;;;12.06;94.10;100123.81;1746895;82;21079;-68
2022/09/01 01:56:56;;;;;;;3.62;2.20;;;;;;;11.96;94.59;100118.94;1746974;82;21028;-68
2022/09/01 01:59:23;;;;;;;4.17;2.15;;;;;;;11.89;95.50;100115.28;1746922;82;22045;-67
2022/09/01 02:01:50;;;;;;;3.05;2.15;;;;;;;11.82;97.08;100113.33;1746265;82;21164;-67
2022/09/01 02:04:18;;;;;;;2.65;2.08;;;;;;;11.72;97.13;100112.02;1746565;82;22108;-68
2022/09/01 02:06:46;;;;;;;3.08;2.00;;;;;;;11.64;98.02;100110.14;1746966;82;21046;-68
2022/09/01 02:09:17;;;;;;;4.45;2.20;;;;;;;11.54;98.51;100109.20;1746836;81;21508;-69
2022/09/01 02:11:44;;;;;;;5.30;2.27;;;;;;;11.46;99.84;100109.15;1747369;81;21072;-68
2022/09/01 02:14:12;;;;;;;3.25;2.08;;;;;;;11.38;100.00;100113.86;1746694;82;21236;-68
2022/09/01 02:16:42;;;;;;;4.58;1.77;;;;;;;11.29;100.00;100108.50;1746886;82;21056;-70
2022/09/01 02:19:11;;;;;;;4.33;2.35;;;;;;;11.21;100.00;100107.97;1746820;82;21060;-67
2022/09/01 02:21:43;;;;;;;3.65;2.22;;;;;;;11.15;100.00;100110.83;1746834;81;21083;-69
2022/09/01 02:24:08;;;;;;;7.55;2.05;;;;;;;11.07;100.00;100119.91;1746734;81;21043;-67
2022/09/01 02:26:39;;;;;;;6.92;2.30;;;;;;;11.00;100.00;100117.11;1746722;82;21142;-69
2022/09/01 02:29:19;;;;;;;4.70;2.30;;;;;;;10.92;100.00;100116.53;1744172;81;21069;-68
2022/09/01 02:31:41;;;;;;;3.08;2.00;;;;;;;10.85;100.00;100111.11;1746700;82;21524;-68
2022/09/01 02:34:10;;;;;;;3.22;2.00;;;;;;;10.78;100.00;100110.95;1746589;81;21044;-68
2022/09/01 02:36:41;;;;;;;4.03;2.20;;;;;;;10.71;100.00;100112.48;1746744;82;20988;-69
2022/09/01 02:39:05;;;;;;;4.85;2.50;;;;;;;10.66;100.00;100119.70;1747108;82;21743;-68
2022/09/01 02:41:33;;;;;;;4.33;2.42;;;;;;;10.61;100.00;100120.81;1746890;82;21059;-68
2022/09/01 02:44:02;;;;;;;4.65;2.47;;;;;;;10.55;100.00;100116.61;1746775;81;21001;-67
2022/09/01 02:46:30;;;;;;;3.47;2.33;;;;;;;10.48;100.00;100126.51;1746740;81;21024;-67
2022/09/01 02:48:59;;;;;;;4.15;2.40;;;;;;;10.42;100.00;100121.48;1746878;82;21020;-68
2022/09/01 02:51:24;;;;;;;13.65;2.95;;;;;;;10.38;100.00;100117.70;1746833;82;21149;-68
2022/09/01 02:53:52;;;;;;;5.87;2.60;;;;;;;10.33;100.00;100124.89;1746820;82;21055;-68
2022/09/01 02:56:23;;;;;;;3.75;2.02;;;;;;;10.27;100.00;100125.48;1746704;82;21079;-68
2022/09/01 02:58:50;;;;;;;3.30;2.12;;;;;;;10.24;100.00;100126.07;1747114;82;21635;-68
2022/09/01 03:01:23;;;;;;;6.25;2.40;;;;;;;10.21;100.00;100136.22;1731468;81;21130;-68
2022/09/01 03:03:53;;;;;;;4.55;2.47;;;;;;;10.19;100.00;100134.12;1714704;83;21115;-69
2022/09/01 03:06:22;;;;;;;9.05;2.72;;;;;;;10.18;100.00;100138.97;1717291;83;21020;-69
2022/09/01 03:08:55;;;;;;;8.85;2.80;;;;;;;10.17;100.00;100139.90;1717195;83;21064;-68
2022/09/01 03:11:24;;;;;;;5.67;2.25;;;;;;;10.16;100.00;100140.80;1714744;82;21051;-69
2022/09/01 03:13:51;;;;;;;5.97;2.60;;;;;;;10.17;100.00;100137.27;1716973;83;21059;-67
2022/09/01 03:16:18;;;;;;;3.20;2.40;;;;;;;10.19;100.00;100143.34;1717129;83;21167;-69
2022/09/01 03:18:45;;;;;;;4.25;2.20;;;;;;;10.18;100.00;100141.60;1716952;83;21056;-69
2022/09/01 03:21:15;;;;;;;10.10;2.35;;;;;;;10.20;100.00;100147.67;1717098;83;21200;-68
2022/09/01 03:23:45;;;;;;;7.67;2.40;;;;;;;10.19;100.00;100149.92;1716924;83;22235;-68
2022/09/01 03:26:13;;;;;;;3.72;2.10;;;;;;;10.21;100.00;100152.02;1716909;83;21032;-69
2022/09/01 03:28:40;;;;;;;2.60;2.15;;;;;;;10.24;100.00;100145.81;1714205;83;21807;-67
2022/09/01 03:31:07;;;;;;;3.40;2.20;;;;;;;10.24;100.00;100151.92;1716905;83;22238;-67
2022/09/01 03:33:35;;;;;;;4.72;2.60;;;;;;;10.29;100.00;100146.53;1719199;82;21019;-68
2022/09/01 03:36:04;;;;;;;5.22;2.20;;;;;;;10.40;100.00;100143.49;1722107;83;21017;-68
2022/09/01 03:38:32;;;;;;;3.90;2.47;;;;;;;10.43;100.00;100146.04;1722314;83;21599;-70
2022/09/01 03:41:03;;;;;;;5.15;2.45;;;;;;;10.45;100.00;100150.33;1717584;83;21152;-69
2022/09/01 03:43:31;;;;;;;7.03;2.58;;;;;;;10.50;100.00;100156.75;1722482;83;22287;-67
2022/09/01 03:45:59;;;;;;;8.98;2.45;;;;;;;10.54;100.00;100150.46;1722333;83;21091;-70
2022/09/01 03:48:27;;;;;;;4.35;2.70;;;;;;;10.61;100.00;100152.41;1722443;83;21052;-69
2022/09/01 03:51:01;;;;;;;4.35;2.20;;;;;;;10.67;100.00;100157.00;1722430;83;21015;-69
2022/09/01 03:53:26;;;;;;;5.15;2.27;;;;;;;10.85;100.00;100162.02;1724896;81;21142;-68
2022/09/01 03:55:56;;;;;;;3.85;2.20;;;;;;;11.18;100.00;100160.34;1751882;81;20989;-68
2022/09/01 03:58:23;;;;;;;5.47;2.37;;;;;;;11.47;100.00;100164.45;1752140;81;21039;-69
2022/09/01 04:00:57;;;;;;;2.47;2.02;;;;;;;11.78;100.00;100153.09;1751913;81;21044;-69
2022/09/01 04:03:26;;;;;;;6.03;2.10;;;;;;;12.30;100.00;100164.97;1752199;81;21063;-69
2022/09/01 04:05:53;;;;;;;5.20;2.45;;;;;;;13.00;100.00;100163.59;1751995;81;21833;-68
2022/09/01 04:08:24;;;;;;;5.45;2.40;;;;;;;13.70;95.75;100158.52;1752285;81;21048;-68
2022/09/01 04:10:51;;;;;;;3.23;1.80;;;;;;;14.14;89.84;100162.52;1752158;81;21642;-69
2022/09/01 04:13:24;;;;;;;10.13;2.33;;;;;;;14.40;86.20;100158.06;1752457;81;21294;-69
2022/09/01 04:15:52;;;;;;;5.53;1.92;;;;;;;14.59;83.53;100158.45;1752149;81;21108;-67
2022/09/01 04:18:22;;;;;;;2.98;1.90;;;;;;;14.63;81.90;100154.67;1752316;81;21071;-70
2022/09/01 04:20:55;;;;;;;4.92;1.90;;;;;;;14.65;80.23;100158.09;1752072;81;21063;-70
2022/09/01 04:23:28;;;;;;;5.12;1.80;;;;;;;14.60;79.91;100161.47;1752209;81;21126;-69
2022/09/01 04:26:08;;;;;;;4.90;2.00;;;;;;;14.68;79.76;100161.93;1752259;81;21091;-69
2022/09/01 04:28:47;;;;;;;6.90;1.80;;;;;;;14.98;79.11;100160.73;1752156;81;21046;-70
2022/09/01 04:31:20;;;;;;;10.70;1.72;;;;;;;15.60;77.73;100162.14;1752081;81;21134;-69
2022/09/01 04:33:51;;;;;;;9.90;2.25;;;;;;;16.30;73.70;100168.25;1749923;81;21043;-69
2022/09/01 04:36:22;;;;;;;4.60;1.70;;;;;;;17.01;70.80;100165.28;1719371;82;21642;-68
2022/09/01 04:38:56;;;;;;;5.47;2.05;;;;;;;17.69;65.81;100168.41;1746977;82;21056;-69
2022/09/01 04:41:30;;;;;;;2.02;1.27;;;;;;;18.24;63.70;100170.06;1746934;82;21068;-69
2022/09/01 04:44:02;;;;;;;2.62;1.35;;;;;;;18.97;58.33;100165.44;1707248;82;21113;-69
2022/09/01 04:46:30;;;;;;;3.98;1.42;;;;;;;19.61;57.50;100163.05;1746915;82;21048;-68
2022/09/01 04:48:57;;;;;;;3.08;1.40;;;;;;;20.24;55.12;100167.19;1746813;82;21485;-70
2022/09/01 04:51:28;;;;;;;7.10;2.20;;;;;;;20.48;54.24;100172.98;1746808;82;20996;-66
2022/09/01 04:53:56;;;;;;;3.50;2.15;;;;;;;20.87;53.89;100164.16;1742302;82;21079;-70
2022/09/01 04:56:24;;;;;;;4.30;2.17;;;;;;;21.42;53.24;100162.41;1702484;83;21141;-69
2022/09/01 04:58:57;;;;;;;4.28;2.22;;;;;;;21.62;52.63;100159.91;1727357;82;21043;-71
2022/09/01 05:01:23;;;;;;;6.28;2.45;;;;;;;21.75;53.55;100164.62;1729056;83;21040;-70
2022/09/01 05:04:00;;;;;;;5.22;3.00;;;;;;;21.74;53.37;100164.23;1729930;82;21527;-69
2022/09/01 05:06:38;;;;;;;9.98;3.77;;;;;;;21.65;54.12;100165.00;1728583;83;21031;-69
2022/09/01 05:09:04;;;;;;;7.55;3.60;;;;;;;21.55;54.11;100159.56;1729742;83;21146;-69
2022/09/01 05:11:37;;;;;;;5.47;3.77;;;;;;;21.50;55.13;100151.90;1728272;82;21012;-68
2022/09/01 05:14:05;;;;;;;6.05;3.67;;;;;;;21.52;55.43;100149.95;1728856;83;21087;-68
2022/09/01 05:16:34;;;;;;;10.70;4.17;;;;;;;21.46;55.59;100143.75;1730000;81;21544;-69
2022/09/01 05:19:01;;;;;;;5.67;3.72;;;;;;;21.54;56.01;100145.31;1729773;83;21066;-69
2022/09/01 05:21:30;;;;;;;8.50;4.10;;;;;;;21.64;56.10;100149.91;1729601;82;21074;-69
2022/09/01 05:24:00;;;;;;;7.58;4.40;;;;;;;21.78;56.22;100149.11;1702951;83;21032;-69
2022/09/01 05:26:30;;;;;;;6.95;4.58;;;;;;;22.08;56.00;100150.69;1729972;82;21008;-69
2022/09/01 05:29:00;;;;;;;7.45;4.45;;;;;;;22.34;55.39;100152.03;1729906;83;21638;-69
2022/09/01 05:31:32;;;;;;;;;;;;;;;22.68;54.43;100153.11;1732407;83;21035;-70
2022/09/01 05:33:57;;;;;;;7.90;3.95;;;;;;;23.05;53.30;100148.55;1725574;81;21842;-67
2022/09/01 05:36:23;;;;;;;5.92;3.90;;;;;;;23.24;52.85;100141.91;1716313;83;21579;-70
2022/09/01 05:38:51;;;;;;;5.97;4.08;;;;;;;23.51;52.21;100143.06;1716585;83;21016;-69
2022/09/01 05:41:19;;;;;;;7.17;4.17;;;;;;;23.63;51.49;100146.00;1716383;82;21041;-69
2022/09/01 05:43:51;;;;;;;8.13;4.05;;;;;;;23.79;50.58;100139.25;1716343;83;21096;-71
2022/09/01 05:46:19;;;;;;;8.25;4.03;;;;;;;24.02;50.04;100141.99;1716407;83;21041;-71
2022/09/01 05:48:48;;;;;;;6.95;3.60;;;;;;;24.16;49.24;100143.89;1716201;83;21059;-70
2022/09/01 05:51:20;;;;;;;7.45;3.90;;;;;;;24.41;47.86;100148.66;1716407;83;21064;-69
2022/09/01 05:53:50;;;;;;;6.20;4.17;;;;;;;24.60;46.90;100152.31;1721469;82;21178;-68
2022/09/01 05:56:18;;;;;;;5.20;3.92;;;;;;;24.61;47.21;100156.69;1713880;82;21064;-69
2022/09/01 05:58:47;;;;;;;6.78;3.95;;;;;;;24.69;47.01;100146.88;1738577;82;21225;-70
2022/09/01 06:01:21;;;;;;;10.70;3.87;;;;;;;24.81;46.85;100148.05;1738741;82;21072;-69
2022/09/01 06:03:53;;;;;;;8.88;3.65;;;;;;;24.98;45.58;100147.75;1738070;82;21079;-71
2022/09/01 06:06:29;;;;;;;7.05;3.42;;;;;;;25.06;45.57;100141.97;1738919;82;21040;-69
2022/09/01 06:08:58;;;;;;;8.75;3.60;;;;;;;25.25;44.57;100139.69;1739028;82;21052;-69
2022/09/01 06:11:27;;;;;;;6.08;3.25;;;;;;;25.49;43.41;100130.16;1738697;82;21233;-70
2022/09/01 06:13:57;;;;;;;7.65;4.03;;;;;;;25.61;43.94;100134.34;1713723;82;21521;-72
2022/09/01 06:16:24;;;;;;;4.87;3.00;;;;;;;26.01;43.27;100134.38;1738709;82;21032;-69
2022/09/01 06:18:52;;;;;;;6.08;3.85;;;;;;;26.50;41.59;100140.13;1727500;82;21056;-70
2022/09/01 06:21:21;;;;;;;5.22;2.90;;;;;;;27.14;39.79;100135.71;1709153;84;21099;-69
2022/09/01 06:23:52;;;;;;;3.10;2.20;;;;;;;27.60;38.64;100132.13;1709350;83;21239;-70
2022/09/01 06:26:26;;;;;;;4.20;1.57;;;;;;;28.06;35.23;100124.91;1709011;84;21049;-70
2022/09/01 06:28:57;;;;;;;3.35;1.98;;;;;;;28.46;33.83;100126.72;1708981;83;21628;-69
2022/09/01 06:31:25;;;;;;;3.83;2.20;;;;;;;28.88;33.08;100127.47;1709131;84;21068;-69
2022/09/01 06:33:53;;;;;;;4.28;1.95;;;;;;;29.16;31.39;100131.41;1709387;82;21266;-69
2022/09/01 06:36:22;;;;;;;3.50;1.65;;;;;;;29.14;31.36;100127.19;1717042;83;21185;-69
2022/09/01 06:38:50;;;;;;;6.93;2.27;;;;;;;29.00;31.16;100132.30;1717076;83;21092;-69
2022/09/01 06:41:18;;;;;;;4.95;1.62;;;;;;;28.99;31.10;100130.62;1714281;83;21583;-69
2022/09/01 06:43:48;;;;;;;5.12;1.95;;;;;;;29.05;31.42;100133.97;1716994;83;21095;-69
2022/09/01 06:46:18;;;;;;;4.78;1.90;;;;;;;28.92;31.03;100121.52;1716997;83;21115;-70
2022/09/01 06:48:46;;;;;;;;;;;;;;;28.94;31.04;100126.25;1719736;83;21488;-69
2022/09/01 06:51:16;;;;;;;3.40;1.70;;;;;;;29.09;30.47;100132.31;1716721;83;20141;-71
2022/09/01 06:53:44;;;;;;;6.97;1.80;;;;;;;29.23;30.06;100134.27;1720457;82;21135;-69
2022/09/01 06:56:13;;;;;;;3.55;1.90;;;;;;;29.53;29.78;100129.00;1746501;82;21545;-70
2022/09/01 06:58:46;;;;;;;3.27;1.70;;;;;;;29.69;29.42;100122.13;1719138;82;20985;-70
2022/09/01 07:01:17;;;;;;;5.50;2.17;;;;;;;29.73;29.18;100129.41;1746550;81;21891;-69
2022/09/01 07:03:38;;;;;;;3.35;2.10;;;;;;;29.52;29.51;100134.08;1745092;82;21005;-69
2022/09/01 07:06:10;;;;;;;5.25;2.08;;;;;;;29.25;29.63;100136.28;1745285;82;21525;-69
2022/09/01 07:08:54;;;;;;;5.78;3.05;;;;;;;28.97;29.90;100135.37;1681145;82;21006;-69
2022/09/01 07:11:27;;;;;;;9.93;2.43;;;;;;;29.11;29.73;100136.53;1746680;82;21044;-69
2022/09/01 07:14:00;;;;;;;3.42;1.92;;;;;;;29.28;29.52;100141.34;1746909;82;21292;-70
2022/09/01 07:16:29;;;;;;;3.35;2.33;;;;;;;29.11;30.21;100135.69;1746840;82;21185;-70
2022/09/01 07:18:59;;;;;;;5.90;2.60;;;;;;;29.12;29.04;100134.14;1746749;82;21613;-70
2022/09/01 07:21:27;;;;;;;6.25;2.27;;;;;;;29.29;29.19;100138.98;1719574;82;21073;-71
2022/09/01 07:23:56;;;;;;;7.05;2.55;;;;;;;29.42;28.46;100137.02;1746878;81;21076;-69
2022/09/01 07:26:24;;;;;;;7.75;2.40;;;;;;;29.25;28.53;100140.36;1746852;82;21288;-70
2022/09/01 07:28:52;;;;;;;5.15;2.20;;;;;;;28.98;28.38;100136.22;1746618;81;21048;-70
2022/09/01 07:31:26;;;;;;;4.70;2.22;;;;;;;28.52;28.90;100136.88;1719366;82;20985;-69
2022/09/01 07:33:57;;;;;;;1.95;1.75;;;;;;;28.07;28.99;100138.28;1746547;81;21025;-69
2022/09/01 07:36:25;;;;;;;3.33;2.00;;;;;;;27.56;29.16;100140.23;1722955;81;21040;-72
2022/09/01 07:38:55;;;;;;;4.53;2.35;;;;;;;27.49;29.64;100144.62;1722298;81;21247;-70
2022/09/01 07:41:23;;;;;;;3.23;1.53;;;;;;;27.49;29.64;100144.62;1752621;81;22102;-71
2022/09/01 07:44:12;;;;;;;4.60;1.80;;;;;;;27.48;28.19;100137.53;1752011;81;21066;-70
2022/09/01 07:46:48;;;;;;;3.15;1.87;;;;;;;27.21;28.98;100147.59;1747899;81;21087;-71
2022/09/01 07:49:15;;;;;;;4.75;2.15;;;;;;;27.14;29.17;100143.82;1751776;81;21047;-70
2022/09/01 07:51:44;;;;;;;11.20;2.87;;;;;;;27.14;29.92;100145.17;1751950;81;21486;-71
2022/09/01 07:54:12;;;;;;;5.97;3.15;;;;;;;26.99;29.72;100146.31;1749095;81;21085;-70
2022/09/01 07:56:40;;;;;;;9.45;3.30;;;;;;;26.80;29.55;100144.69;1744962;82;21140;-69
2022/09/01 07:59:08;;;;;;;14.05;4.10;;;;;;;26.67;29.93;100152.41;1744684;81;21597;-71
2022/09/01 08:01:36;;;;;;;8.60;2.90;;;;;;;26.45;30.63;100151.89;1744613;82;21061;-71
2022/09/01 08:04:03;;;;;;;7.10;3.40;;;;;;;26.13;30.65;100146.60;1744639;81;21214;-70
2022/09/01 08:06:30;;;;;;;6.67;4.60;;;;;;;25.88;30.54;100152.33;1744671;82;21225;-70
2022/09/01 08:08:59;;;;;;;11.22;5.65;;;;;;;25.69;30.61;100147.88;1744607;82;21002;-70
2022/09/01 08:11:29;;;;;;;14.73;7.80;;;;;;;25.47;30.95;100148.36;1744839;82;21135;-70
2022/09/01 08:14:00;;;;;;;16.85;8.10;;;;;;;25.39;32.04;100140.17;1744707;80;21061;-70
2022/09/01 08:16:29;;;;;;;13.90;6.30;;;;;;;25.57;32.40;100136.99;1718900;82;21933;-70
2022/09/01 08:18:57;;;;;;;18.37;8.65;;;;;;;25.68;30.99;100144.86;1717381;82;21564;-69
2022/09/01 08:21:26;;;;;;;20.57;9.88;;;;;;;25.68;31.89;100138.11;1744157;82;21105;-69
2022/09/01 08:24:02;;;;;;;19.00;8.60;;;;;;;25.78;31.64;100134.48;1743823;82;21010;-69
2022/09/01 08:26:30;;;;;;;17.95;9.25;;;;;;;26.01;31.62;100138.42;1744960;81;21581;-70
2022/09/01 08:28:57;;;;;;;18.98;8.95;;;;;;;26.37;31.46;100132.95;1744686;81;22050;-70
2022/09/01 08:31:26;;;;;;;15.68;8.23;;;;;;;26.85;30.80;100128.86;1747313;81;21056;-70
2022/09/01 08:33:54;;;;;;;18.95;9.25;;;;;;;27.27;30.78;100128.02;1752310;81;21039;-70
2022/09/01 08:36:21;;;;;;;11.88;7.25;;;;;;;27.58;30.02;100126.91;1747491;81;21005;-70
2022/09/01 08:38:47;;;;;;;11.88;6.05;;;;;;;27.97;27.26;100118.65;1747088;82;21056;-71
2022/09/01 08:41:38;;;;;;;17.57;8.08;;;;;;;28.18;27.19;100123.05;1747104;82;21154;-69
2022/09/01 08:44:36;;;;;;;21.87;11.07;;;;;;;28.36;26.83;100126.05;1744811;82;21556;-70
2022/09/01 08:47:08;;;;;;;9.43;4.90;;;;;;;28.52;27.51;100124.69;1746918;82;21032;-69
2022/09/01 08:49:35;;;;;;;17.90;9.23;;;;;;;28.65;25.75;100123.63;1719453;82;21092;-69
2022/09/01 08:52:32;;;;;;;13.15;6.30;;;;;;;28.61;26.16;100123.64;1747181;82;21055;-70
2022/09/01 08:55:26;;;;;;;13.98;7.20;;;;;;;28.31;25.54;100114.89;1746842;81;21218;-70
2022/09/01 08:57:56;;;;;;;14.45;8.33;;;;;;;27.94;25.64;100115.78;1746981;81;21543;-70
2022/09/01 09:00:26;;;;;;;14.95;6.87;;;;;;;27.56;26.83;100110.48;1746905;82;21107;-71
2022/09/01 09:03:23;;;;;;;6.15;3.37;;;;;;;27.55;27.08;100115.56;1746717;82;21161;-71
2022/09/01 09:06:13;;;;;;;8.88;3.80;;;;;;;27.94;26.72;100114.94;1746490;82;21127;-71
2022/09/01 09:09:03;;;;;;;15.98;9.15;;;;;;;28.40;26.19;100115.21;1727503;82;22031;-69
2022/09/01 09:12:21;;;;;;;18.52;11.28;;;;;;;28.84;25.87;100114.76;1746856;81;21040;-71
2022/09/01 09:14:56;;;;;;;26.23;13.50;;;;;;;29.05;25.07;100116.34;1746991;82;21131;-68
2022/09/01 09:17:30;;;;;;;23.38;11.70;;;;;;;29.32;25.33;100113.38;1746927;82;21055;-70
2022/09/01 09:19:58;;;;;;;22.50;10.48;;;;;;;29.60;24.85;100111.80;1746783;82;21023;-70
2022/09/01 09:22:25;;;;;;;34.98;17.50;;;;;;;29.65;24.57;100103.12;1672947;82;21846;-70
2022/09/01 09:24:59;;;;;;;39.92;21.17;;;;;;;29.83;24.91;100109.62;1746895;82;21052;-71
2022/09/01 09:27:36;;;;;;;51.77;28.42;;;;;;;29.80;24.59;100114.91;1746906;82;21047;-71
2022/09/01 09:30:10;;;;;;;52.73;29.40;;;;;;;29.68;24.13;100108.23;1747003;82;21012;-70
2022/09/01 09:33:09;;;;;;;40.67;19.85;;;;;;;29.72;22.94;100109.53;1746348;82;21083;-70
2022/09/01 09:35:43;;;;;;;39.23;22.00;;;;;;;29.72;22.94;100109.53;1746595;81;21553;-71
2022/09/01 09:38:18;;;;;;;50.03;27.73;;;;;;;29.40;23.22;100111.45;1747017;82;21141;-70
2022/09/01 09:41:11;;;;;;;64.07;34.70;;;;;;;29.04;23.81;100113.31;1747029;82;21310;-69
2022/09/01 09:44:03;;;;;;;76.55;41.95;;;;;;;28.41;25.03;100123.66;1746802;82;21087;-70
2022/09/01 09:46:36;;;;;;;69.03;39.25;;;;;;;27.80;25.75;100118.63;1721275;82;21033;-70
2022/09/01 09:49:23;;;;;;;73.47;38.58;;;;;;;27.09;26.97;100121.84;1746828;82;21203;-71
2022/09/01 09:52:10;;;;;;;61.80;35.60;;;;;;;26.67;27.21;100122.70;1741469;82;21613;-70
2022/09/01 09:54:53;;;;;;;67.90;36.97;;;;;;;26.46;27.37;100125.25;1746904;82;21024;-71
2022/09/01 09:57:20;;;;;;;61.80;34.58;;;;;;;26.21;27.79;100126.10;1739433;82;21036;-70
2022/09/01 10:00:01;;;;;;;60.35;34.10;;;;;;;25.89;28.79;100124.84;1747116;81;21072;-70
2022/09/01 10:02:37;;;;;;;62.38;32.00;;;;;;;25.62;29.00;100120.34;1729474;82;21236;-70
2022/09/01 10:05:35;;;;;;;63.25;34.65;;;;;;;25.37;30.04;100120.61;1716849;83;21083;-70
2022/09/01 10:08:03;;;;;;;59.77;33.60;;;;;;;25.19;29.60;100124.14;1717309;83;21088;-71
2022/09/01 10:10:47;;;;;;;58.73;34.27;;;;;;;25.02;29.16;100124.91;1717352;83;21023;-71
2022/09/01 10:13:22;;;;;;;62.33;35.60;;;;;;;24.89;29.46;100124.77;1717139;83;21095;-69
2022/09/01 10:15:52;;;;;;;61.53;35.58;;;;;;;24.69;30.32;100125.84;1717036;83;21111;-70
2022/09/01 10:18:22;;;;;;;64.10;35.60;;;;;;;24.65;30.86;100124.44;1716865;83;21084;-69
2022/09/01 10:21:02;;;;;;;62.88;34.73;;;;;;;24.85;31.09;100119.33;1717504;83;21051;-70
2022/09/01 10:23:29;;;;;;;;;;;;;;;25.06;30.57;100115.53;1719668;83;21087;-70
2022/09/01 10:26:06;;;;;;;64.30;33.65;;;;;;;25.32;30.32;100108.94;1717209;82;20191;-69
2022/09/01 10:28:33;;;;;;;54.75;29.12;;;;;;;25.49;30.53;100113.98;1703400;83;21213;-69
2022/09/01 10:31:00;;;;;;;54.27;28.12;;;;;;;25.66;29.97;100107.75;1717091;83;21032;-71
2022/09/01 10:33:27;;;;;;;50.83;28.25;;;;;;;25.53;29.39;100107.28;1717111;83;21064;-68
2022/09/01 10:35:53;;;;;;;54.13;27.50;;;;;;;25.38;30.20;100106.14;1716951;82;21047;-69
2022/09/01 10:38:24;;;;;;;43.08;23.90;;;;;;;25.37;30.35;100105.27;1717094;83;21032;-70
2022/09/01 10:41:07;;;;;;;47.33;24.95;;;;;;;25.44;30.31;100113.59;1717083;83;21231;-70
2022/09/01 10:43:48;;;;;;;45.70;24.82;;;;;;;25.67;29.44;100112.13;1717059;83;21278;-70
2022/09/01 10:46:23;;;;;;;44.10;23.32;;;;;;;26.00;28.44;100108.89;1716745;83;21164;-69
2022/09/01 10:48:51;;;;;;;37.75;21.70;;;;;;;26.11;28.15;100116.25;1714133;83;21036;-70
2022/09/01 10:51:24;;;;;;;34.98;19.40;;;;;;;26.26;28.25;100107.06;1716782;83;21095;-69
2022/09/01 10:53:56;;;;;;;32.93;18.25;;;;;;;26.43;27.81;100099.90;1724605;82;21099;-70
2022/09/01 10:56:45;;;;;;;32.35;16.30;;;;;;;26.69;26.92;100100.42;1719580;82;21477;-70
2022/09/01 10:59:24;;;;;;;28.02;16.15;;;;;;;27.02;25.53;100096.50;1746958;82;21044;-69
2022/09/01 11:01:56;;;;;;;31.12;15.05;;;;;;;27.35;25.98;100094.22;1746593;82;21040;-69
2022/09/01 11:04:40;;;;;;;32.85;15.93;;;;;;;27.73;24.92;100094.61;1746821;81;21060;-69
2022/09/01 11:07:32;;;;;;;28.07;14.50;;;;;;;27.87;24.64;100088.22;1746738;82;21240;-70
2022/09/01 11:10:26;;;;;;;30.55;14.55;;;;;;;28.03;24.66;100082.79;1746672;82;21004;-70
2022/09/01 11:13:36;;;;;;;26.23;12.65;;;;;;;27.98;24.83;100096.00;1746966;82;21013;-70
2022/09/01 11:16:32;;;;;;;26.75;13.25;;;;;;;28.00;24.27;100089.91;1746630;82;21041;-74
2022/09/01 11:19:32;;;;;;;21.17;13.20;;;;;;;27.96;24.53;100089.91;1744240;82;21020;-71
2022/09/01 11:22:32;;;;;;;23.40;11.70;;;;;;;27.96;25.01;100085.84;1746777;82;21236;-69
2022/09/01 11:25:32;;;;;;;30.92;13.00;;;;;;;27.66;25.42;100084.64;1747162;82;21084;-70
2022/09/01 11:28:09;;;;;;;25.48;11.83;;;;;;;27.35;25.17;100082.56;1746980;82;21035;-72
2022/09/01 11:31:01;;;;;;;20.92;10.18;;;;;;;27.00;26.08;100079.92;1725556;82;21055;-70
2022/09/01 11:34:04;;;;;;;20.25;10.75;;;;;;;26.85;25.16;100082.06;1746865;82;21445;-71
2022/09/01 11:36:48;;;;;;;24.87;12.70;;;;;;;26.57;25.83;100080.45;1749629;81;21583;-69
2022/09/01 11:39:28;;;;;;;28.70;13.13;;;;;;;26.33;25.72;100081.63;1752093;81;21516;-71
2022/09/01 11:42:03;;;;;;;23.77;11.55;;;;;;;26.37;25.68;100075.75;1751357;81;21039;-70
2022/09/01 11:45:13;;;;;;;22.52;12.20;;;;;;;26.49;25.67;100090.33;1751185;81;21032;-69
2022/09/01 11:47:49;;;;;;;23.25;12.25;;;;;;;26.45;25.46;100100.59;1752121;81;21138;-69